Weather at Emergency Medical Evacuation Heliport

Public forecast

Using degrees Fahrenheit for public forecast. Weather courtesy of forecast.io.

Closest aviation weather report (METAR) to Emergency Medical Evacuation Heliport

Closest report is Prescott International Airport - Ernest A. Love Field, 16.0 nm (29.6 km) WSW. Retrieved 2021/06/23 01:53 UTC (34 minutes ago):

KPRC 230153Z 25012G20KT 10SM CLR 30/02 A3008 RMK AO2 SLP090 T03000017

Closest aviation forecast (TAF) to Emergency Medical Evacuation Heliport

Closest forecast is Prescott International Airport - Ernest A. Love Field, 16.0 nm (29.6 km) WSW. Retrieved 2021-06-23 00:22 UTC (2 hours ago):

TAF KPRC 222320Z 2300/2324 25010G16KT P6SM BKN150 FM230400 20007KT P6SM OVC110 FM231200 VRB06KT P6SM VCSH BKN090 FM231800 23010G16KT P6SM -SHRA BKN080 PROB30 2320/2324 5SM TS BR OVC050CB